Time;durP1;ratioP1;P1;durP2;ratioP2;P2;SDS_P1;SDS_P2;PMS_P1;PMS_P2;Temp;Humidity;BMP_temperature;BMP_pressure;BME280_temperature;BME280_humidity;BME280_pressure;Samples;Min_cycle;Max_cycle;Signal;HPM_P1;HPM_P2
2022/09/02 00:00:46;;;;;;;15.23;12.50;;;;;;;20.00;100.00;94170.59;5013013;28;20206;-62
2022/09/02 00:03:12;;;;;;;17.30;12.43;;;;;;;20.13;100.00;94178.34;5030100;28;20292;-61
2022/09/02 00:05:38;;;;;;;15.70;12.30;;;;;;;20.17;100.00;94178.72;5030852;28;20252;-63
2022/09/02 00:08:05;;;;;;;16.10;11.48;;;;;;;20.14;100.00;94177.34;5013060;28;20196;-62
2022/09/02 00:10:33;;;;;;;15.93;12.60;;;;;;;19.88;100.00;94172.97;5031543;28;20213;-61
2022/09/02 00:12:58;;;;;;;15.23;11.93;;;;;;;19.90;100.00;94175.34;5030967;28;20201;-65
2022/09/02 00:15:24;;;;;;;15.50;12.73;;;;;;;19.85;100.00;94175.97;5013060;28;20213;-64
2022/09/02 00:17:51;;;;;;;15.32;12.13;;;;;;;19.99;100.00;94169.81;5012764;28;20194;-64
2022/09/02 00:20:17;;;;;;;15.70;12.43;;;;;;;20.07;100.00;94177.34;5012937;28;20214;-64
2022/09/02 00:22:43;;;;;;;12.82;11.63;;;;;;;20.26;100.00;94180.94;5030560;28;20206;-62
2022/09/02 00:25:08;;;;;;;14.48;12.30;;;;;;;20.13;100.00;94178.34;5030430;28;20722;-62
2022/09/02 00:27:34;;;;;;;14.85;11.90;;;;;;;20.09;100.00;94172.00;5030413;28;20285;-61
2022/09/02 00:30:00;;;;;;;16.23;12.85;;;;;;;20.12;100.00;94183.72;5013466;28;20248;-61
2022/09/02 00:32:26;;;;;;;19.63;12.30;;;;;;;20.21;100.00;94187.69;5034359;28;20217;-62
2022/09/02 00:34:51;;;;;;;18.33;14.23;;;;;;;20.20;100.00;94188.69;5016323;28;20619;-63
2022/09/02 00:37:17;;;;;;;18.70;13.13;;;;;;;20.20;100.00;94193.88;5016215;28;20183;-62
2022/09/02 00:39:42;;;;;;;21.00;13.77;;;;;;;20.35;100.00;94200.41;5016393;28;20766;-64
2022/09/02 00:42:08;;;;;;;17.70;13.73;;;;;;;20.40;100.00;94194.63;5015830;28;20308;-65
2022/09/02 00:44:34;;;;;;;15.70;14.05;;;;;;;20.44;100.00;94199.19;5033617;28;20293;-61
2022/09/02 00:47:00;;;;;;;18.80;14.02;;;;;;;20.43;100.00;94201.97;5016251;28;20213;-62
2022/09/02 00:49:30;;;;;;;15.93;13.85;;;;;;;20.45;100.00;94199.97;5033593;28;20614;-62
2022/09/02 00:52:08;;;;;;;22.15;14.38;;;;;;;20.38;100.00;94201.78;5014916;28;20548;-62
2022/09/02 00:54:40;;;;;;;20.13;14.27;;;;;;;20.32;100.00;94198.19;5032581;28;20210;-63
2022/09/02 00:57:11;;;;;;;16.98;14.35;;;;;;;20.36;100.00;94196.03;5015921;28;20186;-62
2022/09/02 00:59:51;;;;;;;17.63;13.75;;;;;;;20.44;100.00;94190.66;5033899;28;20293;-62
2022/09/02 01:02:17;;;;;;;16.52;13.02;;;;;;;20.40;100.00;94192.06;5033814;28;20206;-64
2022/09/02 01:04:45;;;;;;;16.60;13.35;;;;;;;20.35;100.00;94190.06;5033526;28;20213;-62
2022/09/02 01:07:17;;;;;;;16.17;12.82;;;;;;;20.42;100.00;94200.41;5033704;28;20194;-62
2022/09/02 01:09:43;;;;;;;17.38;12.88;;;;;;;20.38;100.00;94194.03;5033607;28;20305;-63
2022/09/02 01:12:11;;;;;;;20.52;13.88;;;;;;;20.42;100.00;94193.41;5033997;28;20281;-63
2022/09/02 01:14:36;;;;;;;16.48;13.00;;;;;;;20.47;100.00;94196.22;5014893;28;20568;-62
2022/09/02 01:17:02;;;;;;;19.58;13.02;;;;;;;20.44;100.00;94188.84;5034471;28;20188;-62
2022/09/02 01:19:46;;;;;;;15.10;13.00;;;;;;;20.37;100.00;94189.88;5016010;28;20238;-62
2022/09/02 01:22:21;;;;;;;16.55;12.15;;;;;;;20.14;100.00;94197.22;5015456;28;20220;-63
2022/09/02 01:24:47;;;;;;;15.70;13.35;;;;;;;20.11;100.00;94203.56;5033301;28;20228;-62
2022/09/02 01:27:16;;;;;;;14.82;13.10;;;;;;;20.03;100.00;94194.22;5033154;28;20186;-62
2022/09/02 01:29:42;;;;;;;15.52;12.98;;;;;;;20.00;100.00;94194.63;5032999;28;20199;-63
2022/09/02 01:32:07;;;;;;;16.17;13.02;;;;;;;19.85;100.00;94194.03;5033157;28;20400;-62
2022/09/02 01:34:33;;;;;;;14.75;13.18;;;;;;;19.85;100.00;94195.81;5033156;28;20639;-63
2022/09/02 01:36:58;;;;;;;15.30;13.55;;;;;;;19.76;100.00;94190.03;5033086;28;20217;-63
2022/09/02 01:39:24;;;;;;;15.88;12.32;;;;;;;19.84;100.00;94196.78;5033602;28;20217;-61
2022/09/02 01:41:49;;;;;;;14.73;13.10;;;;;;;19.76;100.00;94184.88;5032484;28;20684;-61
2022/09/02 01:44:16;;;;;;;14.88;11.90;;;;;;;19.87;100.00;94192.03;5032236;28;20268;-64
2022/09/02 01:46:42;;;;;;;14.23;12.10;;;;;;;19.89;100.00;94184.09;5014665;28;20209;-62
2022/09/02 01:49:08;;;;;;;15.90;13.20;;;;;;;20.02;100.00;94174.56;5014906;28;20337;-61
2022/09/02 01:51:34;;;;;;;12.90;11.65;;;;;;;20.06;100.00;94169.78;5032769;28;20265;-61
2022/09/02 01:54:00;;;;;;;15.25;11.85;;;;;;;20.04;100.00;94166.63;5032927;28;20717;-63
2022/09/02 01:56:26;;;;;;;15.13;11.55;;;;;;;20.12;100.00;94157.91;5032995;28;20190;-64
2022/09/02 01:58:52;;;;;;;15.60;10.93;;;;;;;20.08;100.00;94158.28;5015438;28;20213;-62
2022/09/02 02:01:17;;;;;;;11.75;10.55;;;;;;;20.30;100.00;94171.03;5014827;28;20221;-61
2022/09/02 02:03:43;;;;;;;12.38;10.23;;;;;;;20.13;100.00;94159.47;5032472;28;20224;-61
2022/09/02 02:06:11;;;;;;;11.73;10.52;;;;;;;20.11;100.00;94139.03;5032821;28;20228;-62
2022/09/02 02:08:38;;;;;;;11.30;10.10;;;;;;;20.18;100.00;94144.97;5032434;28;20234;-64
2022/09/02 02:11:05;;;;;;;14.75;9.35;;;;;;;20.21;100.00;94148.97;5014751;28;20575;-62
2022/09/02 02:13:32;;;;;;;11.10;9.57;;;;;;;20.27;100.00;94161.06;5039705;22;20296;-62
2022/09/02 02:15:57;;;;;;;11.63;9.27;;;;;;;20.33;100.00;94175.75;5032519;28;20201;-62
2022/09/02 02:18:23;;;;;;;10.55;9.48;;;;;;;20.35;100.00;94174.56;5032557;28;20178;-64
2022/09/02 02:20:48;;;;;;;10.55;8.45;;;;;;;20.27;100.00;94168.81;5032296;28;20588;-64
2022/09/02 02:23:14;;;;;;;10.90;8.48;;;;;;;20.25;100.00;94161.28;5032028;28;20297;-64
2022/09/02 02:25:40;;;;;;;8.18;7.45;;;;;;;20.18;100.00;94167.44;5032435;28;20335;-64
2022/09/02 02:28:06;;;;;;;7.38;6.68;;;;;;;20.30;100.00;94176.94;5032419;28;20194;-62
2022/09/02 02:30:32;;;;;;;7.47;6.53;;;;;;;20.20;100.00;94168.06;5032341;28;20301;-62
2022/09/02 02:32:58;;;;;;;6.57;5.97;;;;;;;20.25;100.00;94183.72;5032471;28;20213;-62
2022/09/02 02:35:24;;;;;;;7.20;6.22;;;;;;;20.20;100.00;94180.97;5032035;28;20205;-62
2022/09/02 02:37:51;;;;;;;13.30;11.90;;;;;;;20.04;100.00;94171.78;5032094;28;20710;-61
2022/09/02 02:40:20;;;;;;;5.57;5.03;;;;;;;20.06;100.00;94167.22;5032007;28;20296;-62
2022/09/02 02:42:47;;;;;;;6.30;5.50;;;;;;;20.30;100.00;94195.03;5030684;28;20454;-62
2022/09/02 02:45:12;;;;;;;7.30;6.38;;;;;;;20.27;100.00;94197.22;5030187;28;20210;-65
2022/09/02 02:47:41;;;;;;;6.50;5.40;;;;;;;20.14;100.00;94192.03;5030728;28;20660;-63
2022/09/02 02:50:11;;;;;;;6.35;5.72;;;;;;;20.14;100.00;94189.47;5031912;28;20209;-61
2022/09/02 02:52:39;;;;;;;6.00;5.40;;;;;;;20.17;100.00;94187.28;5030096;28;20178;-64
2022/09/02 02:55:06;;;;;;;6.75;5.35;;;;;;;20.15;100.00;94170.38;5031948;28;20293;-62
2022/09/02 02:57:33;;;;;;;6.75;6.10;;;;;;;20.17;100.00;94173.56;5032063;28;20614;-62
2022/09/02 03:00:11;;;;;;;6.47;5.88;;;;;;;20.05;100.00;94156.13;5031612;28;20218;-62
2022/09/02 03:02:37;;;;;;;7.10;6.38;;;;;;;19.94;100.00;94154.13;5031518;28;20206;-63
2022/09/02 03:05:05;;;;;;;6.85;6.15;;;;;;;19.78;100.00;94151.94;5032113;28;20360;-62
2022/09/02 03:07:31;;;;;;;7.25;6.53;;;;;;;19.83;100.00;94169.41;5032903;28;20722;-62
2022/09/02 03:09:56;;;;;;;6.38;5.78;;;;;;;19.73;100.00;94166.41;5032658;28;20297;-63
2022/09/02 03:12:23;;;;;;;7.47;6.20;;;;;;;19.77;100.00;94160.69;5032349;28;20240;-62
2022/09/02 03:14:49;;;;;;;7.68;6.82;;;;;;;19.63;100.00;94164.25;5033728;28;20687;-63
2022/09/02 03:17:17;;;;;;;6.85;6.25;;;;;;;19.57;100.00;94166.81;5032954;28;20551;-67
2022/09/02 03:19:44;;;;;;;6.63;6.03;;;;;;;19.46;100.00;94162.19;5035740;28;20217;-65
2022/09/02 03:22:10;;;;;;;8.63;7.00;;;;;;;19.61;100.00;94157.69;5033116;28;20210;-63
2022/09/02 03:24:38;;;;;;;7.22;6.53;;;;;;;19.72;100.00;94167.41;5031996;28;20206;-62
2022/09/02 03:27:04;;;;;;;7.53;6.72;;;;;;;19.59;100.00;94160.47;5031764;28;20186;-63
2022/09/02 03:29:29;;;;;;;7.50;6.80;;;;;;;19.44;100.00;94162.41;5032473;28;20220;-65
2022/09/02 03:31:59;;;;;;;9.52;6.78;;;;;;;19.44;100.00;94164.19;5031615;28;20198;-64
2022/09/02 03:34:26;;;;;;;8.05;6.65;;;;;;;19.73;100.00;94169.00;5030692;28;20296;-62
2022/09/02 03:36:51;;;;;;;6.78;6.13;;;;;;;19.54;100.00;94167.19;5032223;28;20634;-61
2022/09/02 03:39:19;;;;;;;8.48;7.68;;;;;;;19.66;100.00;94174.16;5032790;28;20269;-65
2022/09/02 03:41:44;;;;;;;10.82;7.07;;;;;;;19.77;100.00;94175.34;5031731;28;20222;-62
2022/09/02 03:44:11;;;;;;;9.55;7.50;;;;;;;19.65;100.00;94170.00;5031873;28;20213;-62
2022/09/02 03:46:37;;;;;;;8.48;7.63;;;;;;;19.57;100.00;94175.34;5033873;28;20666;-62
2022/09/02 03:49:03;;;;;;;8.15;7.03;;;;;;;19.62;100.00;94185.03;5032177;28;20198;-61
2022/09/02 03:51:31;;;;;;;9.10;8.00;;;;;;;19.41;100.00;94190.38;5031379;28;20186;-62
2022/09/02 03:53:57;;;;;;;9.00;7.55;;;;;;;19.41;100.00;94190.38;5031984;28;20687;-63
2022/09/02 03:56:24;;;;;;;9.15;7.70;;;;;;;19.39;100.00;94203.47;5030765;28;20308;-62
2022/09/02 03:58:51;;;;;;;9.05;7.22;;;;;;;19.41;100.00;94204.06;5031682;28;20687;-60
2022/09/02 04:01:19;;;;;;;9.43;7.75;;;;;;;19.53;100.00;94207.66;5030836;28;20197;-62
2022/09/02 04:03:46;;;;;;;8.50;7.72;;;;;;;19.54;100.00;94206.66;5031880;28;20216;-62
2022/09/02 04:06:14;;;;;;;8.23;7.47;;;;;;;19.34;100.00;94205.81;5037181;28;20182;-62
2022/09/02 04:08:43;;;;;;;9.65;8.75;;;;;;;19.32;100.00;94218.06;5037203;28;20275;-62
2022/09/02 04:11:11;;;;;;;9.43;8.52;;;;;;;19.53;100.00;94222.34;5037400;28;20652;-61
2022/09/02 04:13:37;;;;;;;8.88;8.07;;;;;;;19.65;100.00;94219.00;5037294;28;20263;-65
2022/09/02 04:16:12;;;;;;;9.13;7.72;;;;;;;19.59;100.00;94219.78;5036006;28;20193;-63
2022/09/02 04:18:37;;;;;;;8.57;7.30;;;;;;;19.41;100.00;94216.97;5035966;28;20211;-64
2022/09/02 04:21:03;;;;;;;9.40;8.50;;;;;;;19.34;100.00;94221.28;5037215;28;20276;-64
2022/09/02 04:23:30;;;;;;;8.90;7.80;;;;;;;19.35;100.00;94220.31;5037406;28;20588;-67
2022/09/02 04:25:56;;;;;;;8.75;7.90;;;;;;;19.40;100.00;94230.81;5035664;28;20232;-64
2022/09/02 04:28:22;;;;;;;9.68;8.43;;;;;;;19.39;100.00;94231.03;5037122;28;20185;-64
2022/09/02 04:30:47;;;;;;;10.90;8.95;;;;;;;19.35;100.00;94232.41;5036945;28;20190;-63
2022/09/02 04:33:13;;;;;;;10.48;9.07;;;;;;;19.40;100.00;94230.81;5037005;28;20216;-65
2022/09/02 04:35:41;;;;;;;9.25;8.00;;;;;;;19.50;100.00;94233.81;5037205;28;20610;-61
2022/09/02 04:38:06;;;;;;;10.10;9.13;;;;;;;19.45;100.00;94230.25;5035561;28;20626;-62
2022/09/02 04:40:32;;;;;;;8.98;8.07;;;;;;;19.60;100.00;94234.25;5036789;28;20210;-64
2022/09/02 04:42:58;;;;;;;10.48;9.48;;;;;;;19.59;100.00;94239.59;5035331;28;20218;-65
2022/09/02 04:45:23;;;;;;;11.13;9.20;;;;;;;19.58;100.00;94236.22;5035430;28;20214;-65
2022/09/02 04:47:49;;;;;;;9.68;8.63;;;;;;;19.57;100.00;94242.38;5035612;28;20664;-62
2022/09/02 04:50:14;;;;;;;10.02;9.02;;;;;;;19.68;100.00;94244.38;5037004;28;20206;-63
2022/09/02 04:52:40;;;;;;;10.20;9.02;;;;;;;19.58;100.00;94232.84;5036572;28;20190;-63
2022/09/02 04:55:06;;;;;;;11.00;9.90;;;;;;;19.66;100.00;94245.56;5035492;28;20628;-63
2022/09/02 04:57:32;;;;;;;12.57;11.30;;;;;;;19.69;100.00;94240.03;5036677;28;20185;-62
2022/09/02 04:59:57;;;;;;;10.40;9.35;;;;;;;19.73;100.00;94244.63;5036740;28;20222;-66
2022/09/02 05:02:23;;;;;;;12.02;10.82;;;;;;;19.69;100.00;94243.41;5036561;28;20194;-66
2022/09/02 05:04:48;;;;;;;10.82;9.27;;;;;;;19.67;100.00;94240.22;5035477;28;20194;-62
2022/09/02 05:07:14;;;;;;;10.48;9.48;;;;;;;19.70;100.00;94245.00;5036812;28;20259;-64
2022/09/02 05:09:40;;;;;;;13.63;12.10;;;;;;;19.75;100.00;94249.56;5036717;28;20217;-63
2022/09/02 05:12:06;;;;;;;13.32;10.88;;;;;;;19.80;100.00;94250.56;5036415;28;20604;-64
2022/09/02 05:14:32;;;;;;;12.70;10.98;;;;;;;19.76;100.00;94251.94;5043879;22;20308;-62
2022/09/02 05:16:59;;;;;;;10.85;9.23;;;;;;;19.83;100.00;94252.78;5031775;28;20271;-63
2022/09/02 05:19:25;;;;;;;11.48;9.82;;;;;;;19.92;100.00;94261.91;5033193;28;20256;-63
2022/09/02 05:21:56;;;;;;;11.50;8.77;;;;;;;19.84;100.00;94259.50;5033088;28;20226;-63
2022/09/02 05:24:22;;;;;;;10.68;9.68;;;;;;;19.72;100.00;94244.78;5032960;28;20217;-62
2022/09/02 05:26:49;;;;;;;10.88;9.77;;;;;;;19.42;100.00;94249.47;5032934;28;20194;-63
2022/09/02 05:29:17;;;;;;;12.15;9.60;;;;;;;19.51;100.00;94252.69;5033131;28;20249;-64
2022/09/02 05:31:43;;;;;;;9.88;8.85;;;;;;;19.77;100.00;94257.91;5012991;28;20840;-65
2022/09/02 05:34:09;;;;;;;11.52;9.05;;;;;;;19.82;100.00;94255.53;5031660;28;20202;-62
2022/09/02 05:36:35;;;;;;;11.07;8.63;;;;;;;19.98;100.00;94255.94;5033064;28;20182;-61
2022/09/02 05:39:01;;;;;;;9.52;8.63;;;;;;;19.68;100.00;94252.13;5033026;28;20676;-62
2022/09/02 05:41:27;;;;;;;9.40;8.27;;;;;;;19.51;100.00;94248.31;5032844;28;20182;-62
2022/09/02 05:43:58;;;;;;;9.38;8.32;;;;;;;19.47;100.00;94249.69;5014987;28;20619;-66
2022/09/02 05:46:25;;;;;;;9.10;8.20;;;;;;;19.77;100.00;94253.56;5014965;28;20198;-65
2022/09/02 05:49:07;;;;;;;9.57;8.65;;;;;;;19.70;100.00;94252.72;5032781;28;20670;-62
2022/09/02 05:51:41;;;;;;;11.73;8.15;;;;;;;19.56;100.00;94251.09;5032837;28;20214;-62
2022/09/02 05:54:09;;;;;;;8.98;8.18;;;;;;;19.84;100.00;94262.09;5032506;28;20702;-62
2022/09/02 05:56:37;;;;;;;10.80;8.38;;;;;;;19.84;100.00;94241.44;5032668;28;20187;-62
2022/09/02 05:59:02;;;;;;;9.50;8.00;;;;;;;20.07;100.00;94248.81;5032585;28;20214;-62
2022/09/02 06:01:28;;;;;;;10.85;8.80;;;;;;;20.25;100.00;94243.09;5032591;28;20174;-64
2022/09/02 06:03:56;;;;;;;10.00;8.40;;;;;;;20.50;100.00;94257.78;5032501;28;20236;-67
2022/09/02 06:06:22;;;;;;;9.98;8.32;;;;;;;20.53;100.00;94254.00;5014635;28;20187;-67
2022/09/02 06:08:48;;;;;;;11.52;8.18;;;;;;;20.35;100.00;94251.22;5014661;28;20248;-65
2022/09/02 06:11:15;;;;;;;8.98;8.07;;;;;;;20.51;100.00;94254.22;5032304;28;20221;-65
2022/09/02 06:13:41;;;;;;;9.65;7.90;;;;;;;20.53;100.00;94270.31;5032630;28;20229;-66
2022/09/02 06:16:09;;;;;;;8.45;7.43;;;;;;;20.88;100.00;94257.94;5032283;28;20185;-64
2022/09/02 06:18:35;;;;;;;9.30;8.40;;;;;;;21.13;100.00;94284.75;5032595;28;20234;-63
2022/09/02 06:21:03;;;;;;;14.13;9.82;;;;;;;21.34;100.00;94284.50;5014582;28;20275;-63
2022/09/02 06:23:29;;;;;;;11.15;8.27;;;;;;;21.57;100.00;94277.03;5014277;28;21901;-63
2022/09/02 06:25:54;;;;;;;11.48;7.88;;;;;;;21.85;100.00;94279.34;5032185;28;20182;-63
2022/09/02 06:28:20;;;;;;;8.10;7.30;;;;;;;22.07;100.00;94303.09;5030768;28;20186;-64
2022/09/02 06:30:49;;;;;;;10.75;7.18;;;;;;;22.17;100.00;94326.75;5032340;28;20186;-62
2022/09/02 06:33:14;;;;;;;8.75;6.63;;;;;;;22.24;100.00;94299.03;5031924;28;20205;-63
2022/09/02 06:35:43;;;;;;;8.90;7.72;;;;;;;22.39;100.00;94326.19;5014282;28;20605;-63
2022/09/02 06:38:10;;;;;;;8.68;7.43;;;;;;;22.55;100.00;94345.63;5032257;28;20218;-65
2022/09/02 06:40:44;;;;;;;8.52;7.15;;;;;;;22.64;100.00;94338.41;5031990;28;20182;-62
2022/09/02 06:43:09;;;;;;;10.65;6.88;;;;;;;22.83;100.00;94368.56;5031936;28;20730;-64
2022/09/02 06:45:39;;;;;;;9.55;6.88;;;;;;;22.71;100.00;94357.28;5031876;28;20265;-64
2022/09/02 06:48:05;;;;;;;6.63;6.03;;;;;;;22.62;100.00;94336.03;5031927;28;20194;-64
2022/09/02 06:50:32;;;;;;;7.57;6.40;;;;;;;22.71;100.00;94339.16;5031765;28;20217;-65
2022/09/02 06:52:58;;;;;;;6.57;5.97;;;;;;;22.77;100.00;94348.66;5013916;28;20206;-64
2022/09/02 06:55:23;;;;;;;7.32;6.65;;;;;;;22.89;100.00;94381.47;5013944;28;20517;-65
2022/09/02 06:57:49;;;;;;;6.88;6.28;;;;;;;22.62;100.00;94336.03;5031709;28;20195;-61
2022/09/02 07:00:15;;;;;;;9.00;6.57;;;;;;;22.60;100.00;94332.88;5031881;28;20710;-63
2022/09/02 07:02:41;;;;;;;7.05;6.45;;;;;;;22.77;100.00;94339.09;5031561;28;20210;-61
2022/09/02 07:05:14;;;;;;;7.15;6.45;;;;;;;22.76;100.00;94354.88;5031436;28;20209;-62
2022/09/02 07:07:41;;;;;;;7.03;6.35;;;;;;;22.76;100.00;94350.50;5031601;28;20174;-61
2022/09/02 07:10:10;;;;;;;6.78;6.07;;;;;;;22.90;100.00;94367.53;5031502;28;20712;-63
2022/09/02 07:12:37;;;;;;;6.43;5.82;;;;;;;22.95;99.72;94391.00;5013752;28;20218;-63
2022/09/02 07:15:04;;;;;;;6.70;6.03;;;;;;;23.13;99.43;94391.06;5031418;28;20707;-63
2022/09/02 07:17:29;;;;;;;7.80;6.07;;;;;;;23.32;98.02;94404.91;5013579;28;20182;-63
2022/09/02 07:19:58;;;;;;;7.03;6.28;;;;;;;23.49;97.13;94415.53;5031684;28;20209;-65
2022/09/02 07:22:24;;;;;;;7.13;5.93;;;;;;;23.57;96.37;94412.66;5030941;28;20714;-63
2022/09/02 07:24:50;;;;;;;6.85;6.25;;;;;;;23.70;95.00;94441.84;5031535;28;20533;-64
2022/09/02 07:27:16;;;;;;;6.47;5.80;;;;;;;23.65;93.88;94441.72;5031425;28;20276;-63
2022/09/02 07:29:43;;;;;;;6.70;5.97;;;;;;;23.71;92.63;94451.25;5031284;28;20583;-65
2022/09/02 07:32:08;;;;;;;6.53;5.82;;;;;;;23.57;92.91;94439.41;5031391;28;20217;-63
2022/09/02 07:34:34;;;;;;;6.15;5.55;;;;;;;23.47;94.65;94409.75;5031302;28;20291;-64
2022/09/02 07:36:59;;;;;;;8.98;5.78;;;;;;;23.50;95.53;94389.34;5031199;28;20278;-65
2022/09/02 07:39:25;;;;;;;6.25;5.65;;;;;;;23.49;95.20;94407.75;5030622;28;20214;-62
2022/09/02 07:41:51;;;;;;;15.07;12.45;;;;;;;23.44;95.25;94402.38;5031122;28;20186;-61
2022/09/02 07:44:18;;;;;;;8.20;6.57;;;;;;;23.50;96.43;94376.38;5030859;28;20222;-60
2022/09/02 07:46:44;;;;;;;12.27;11.00;;;;;;;23.46;96.39;94379.59;5030945;28;20190;-64
2022/09/02 07:49:11;;;;;;;8.60;7.43;;;;;;;23.50;95.84;94391.16;5031085;28;20289;-63
2022/09/02 07:51:40;;;;;;;12.40;9.80;;;;;;;23.56;95.21;94395.47;5030804;28;20194;-64
2022/09/02 07:54:07;;;;;;;8.10;6.38;;;;;;;23.60;95.46;94384.44;5030989;28;20745;-65
2022/09/02 07:56:32;;;;;;;10.38;9.25;;;;;;;23.65;95.04;94396.78;5030826;28;20178;-65
2022/09/02 07:58:58;;;;;;;8.80;7.93;;;;;;;23.73;93.21;94425.06;5030892;28;20221;-64
2022/09/02 08:01:24;;;;;;;9.43;8.32;;;;;;;23.62;95.04;94402.41;5030837;28;20234;-64
2022/09/02 08:03:50;;;;;;;6.88;6.28;;;;;;;23.48;94.83;94406.13;5030885;28;20245;-64
2022/09/02 08:06:16;;;;;;;8.02;7.22;;;;;;;23.20;97.54;94358.09;5030538;28;20220;-65
2022/09/02 08:08:41;;;;;;;6.78;6.18;;;;;;;23.27;98.03;94361.41;5013034;28;20221;-62
2022/09/02 08:11:08;;;;;;;7.68;6.30;;;;;;;23.31;96.87;94383.34;5030760;28;20604;-63
2022/09/02 08:13:35;;;;;;;7.30;6.70;;;;;;;23.40;96.29;94380.47;5030799;28;20225;-63
2022/09/02 08:16:07;;;;;;;7.03;6.18;;;;;;;23.46;96.26;94387.38;5030550;28;20202;-63
2022/09/02 08:18:33;;;;;;;6.75;6.15;;;;;;;23.56;95.54;94400.66;5030670;28;20249;-64
2022/09/02 08:20:59;;;;;;;7.68;6.72;;;;;;;23.65;94.33;94418.34;5030368;28;20186;-64
2022/09/02 08:23:24;;;;;;;7.20;6.20;;;;;;;23.65;94.38;94422.75;5030432;28;20210;-61
2022/09/02 08:25:50;;;;;;;7.20;6.60;;;;;;;23.72;93.70;94431.25;5030716;28;20197;-63
2022/09/02 08:28:16;;;;;;;6.90;6.00;;;;;;;23.74;93.37;94434.44;5030759;28;20347;-62
2022/09/02 08:30:41;;;;;;;8.93;6.20;;;;;;;23.75;93.04;94433.44;5030585;28;20252;-61
2022/09/02 08:33:07;;;;;;;8.55;6.13;;;;;;;23.74;92.51;94432.63;5030668;28;20247;-63
2022/09/02 08:35:32;;;;;;;6.38;5.78;;;;;;;23.79;91.58;94442.38;5030400;28;20256;-63
2022/09/02 08:37:59;;;;;;;7.97;7.18;;;;;;;23.88;91.33;94457.44;5030391;28;20659;-64
2022/09/02 08:40:33;;;;;;;9.75;8.27;;;;;;;23.71;89.95;94466.81;5030173;28;20206;-64
2022/09/02 08:43:00;;;;;;;9.25;8.20;;;;;;;23.02;93.45;94394.34;5012402;28;20283;-63
2022/09/02 08:45:36;;;;;;;9.35;8.35;;;;;;;22.66;96.52;94352.75;5012530;28;20210;-63
2022/09/02 08:48:13;;;;;;;8.18;7.38;;;;;;;22.52;96.68;94356.41;5030499;28;20678;-63
2022/09/02 08:50:43;;;;;;;8.57;7.53;;;;;;;22.37;96.86;94341.16;5030429;28;20178;-62
2022/09/02 08:53:24;;;;;;;10.30;8.43;;;;;;;22.40;97.86;94332.19;5015986;28;20213;-64
2022/09/02 08:55:56;;;;;;;13.88;8.57;;;;;;;22.36;98.17;94325.84;5033642;28;20255;-63
2022/09/02 08:58:26;;;;;;;9.30;8.38;;;;;;;22.60;98.40;94327.69;5033881;28;20194;-63
2022/09/02 09:01:23;;;;;;;13.68;8.10;;;;;;;22.84;98.07;94334.66;5016164;28;20182;-63
2022/09/02 09:04:23;;;;;;;8.80;7.82;;;;;;;22.95;97.66;94344.34;5033387;28;20683;-63
2022/09/02 09:07:01;;;;;;;11.32;8.30;;;;;;;23.20;96.38;94362.47;5033688;28;20213;-64
2022/09/02 09:09:35;;;;;;;8.48;7.57;;;;;;;23.30;96.73;94368.75;5033197;28;20228;-64
2022/09/02 09:12:11;;;;;;;9.70;8.70;;;;;;;23.43;94.53;94386.03;5033736;28;20273;-63
2022/09/02 09:14:54;;;;;;;8.68;7.78;;;;;;;23.52;94.58;94376.16;5034042;28;20290;-63
2022/09/02 09:17:27;;;;;;;8.45;7.32;;;;;;;23.64;93.85;94390.81;5015568;28;20633;-65
2022/09/02 09:19:58;;;;;;;10.52;9.38;;;;;;;23.75;92.59;94397.09;5015620;28;20684;-63
2022/09/02 09:22:31;;;;;;;11.10;9.20;;;;;;;23.70;92.43;94400.31;5015257;28;20272;-63
2022/09/02 09:24:57;;;;;;;8.23;7.43;;;;;;;23.71;93.13;94391.53;5033198;28;20602;-62
2022/09/02 09:27:24;;;;;;;9.52;8.40;;;;;;;23.81;91.91;94404.81;5031587;28;20190;-66
2022/09/02 09:29:50;;;;;;;9.98;8.57;;;;;;;23.81;91.45;94410.00;5015588;28;20585;-62
2022/09/02 09:32:25;;;;;;;11.40;9.10;;;;;;;23.73;92.42;94392.13;5033009;28;20252;-63
2022/09/02 09:34:50;;;;;;;12.15;9.73;;;;;;;23.86;91.46;94410.13;5033519;28;20210;-63
2022/09/02 09:37:35;;;;;;;10.80;9.00;;;;;;;23.99;91.83;94396.22;5015209;28;20209;-66
2022/09/02 09:40:22;;;;;;;17.23;10.40;;;;;;;23.29;94.32;94340.44;5032875;28;20213;-64
2022/09/02 09:42:49;;;;;;;14.50;10.35;;;;;;;23.35;93.80;94355.19;5015168;28;20236;-63
2022/09/02 09:45:30;;;;;;;10.80;9.70;;;;;;;23.47;92.34;94383.81;5032857;28;20693;-63
2022/09/02 09:48:29;;;;;;;11.20;9.10;;;;;;;23.51;92.80;94369.38;5032821;28;20281;-63
2022/09/02 09:50:55;;;;;;;13.85;8.63;;;;;;;23.67;92.38;94371.41;5031762;28;20691;-63
2022/09/02 09:53:26;;;;;;;14.52;10.20;;;;;;;23.77;90.58;94403.66;5032594;28;20208;-62
2022/09/02 09:55:56;;;;;;;19.17;10.50;;;;;;;23.91;89.33;94430.25;5032559;28;20205;-62
2022/09/02 09:58:25;;;;;;;10.30;8.98;;;;;;;23.85;91.17;94389.56;5014776;28;20235;-62
2022/09/02 10:00:55;;;;;;;11.57;9.02;;;;;;;23.92;91.94;94387.69;5032642;28;20198;-62
2022/09/02 10:03:25;;;;;;;12.77;9.65;;;;;;;24.08;90.55;94407.91;5014183;28;20280;-63
2022/09/02 10:05:57;;;;;;;8.88;8.00;;;;;;;24.19;91.16;94401.97;5032697;28;20201;-64
2022/09/02 10:08:26;;;;;;;10.98;9.38;;;;;;;24.26;90.63;94407.88;5032902;28;20198;-64
2022/09/02 10:10:57;;;;;;;11.23;10.13;;;;;;;24.33;88.19;94444.19;5032751;28;20567;-66
2022/09/02 10:13:27;;;;;;;11.77;8.77;;;;;;;24.02;89.63;94408.75;5014720;28;20194;-66
2022/09/02 10:16:27;;;;;;;14.18;10.00;;;;;;;23.74;90.87;94388.50;5014549;28;20660;-65
2022/09/02 10:19:03;;;;;;;10.05;9.00;;;;;;;23.69;92.71;94367.59;5040117;22;20383;-65
2022/09/02 10:21:48;;;;;;;11.10;9.90;;;;;;;23.73;92.65;94354.97;5032339;28;20185;-65
2022/09/02 10:24:38;;;;;;;11.75;9.55;;;;;;;23.90;91.90;94376.72;5032129;28;20218;-65
2022/09/02 10:27:10;;;;;;;11.48;9.70;;;;;;;24.01;91.39;94373.41;5032159;28;20729;-65
2022/09/02 10:29:40;;;;;;;12.52;9.27;;;;;;;24.36;90.91;94382.16;4998303;28;20222;-65
2022/09/02 10:32:12;;;;;;;12.85;10.48;;;;;;;25.01;86.88;94450.66;5032102;28;20186;-65
2022/09/02 10:34:47;;;;;;;10.88;9.77;;;;;;;25.43;84.80;94472.28;5032413;28;20222;-66
2022/09/02 10:37:25;;;;;;;13.02;9.80;;;;;;;25.42;84.04;94489.72;5032046;28;20186;-66
2022/09/02 10:40:09;;;;;;;11.57;9.77;;;;;;;25.48;83.65;94498.41;5032325;28;20652;-62
2022/09/02 10:42:42;;;;;;;12.55;9.70;;;;;;;25.26;84.15;94476.50;5031933;28;20206;-62
2022/09/02 10:45:29;;;;;;;15.50;10.32;;;;;;;25.09;83.52;94475.59;5014224;28;20301;-63
2022/09/02 10:47:55;;;;;;;9.85;8.20;;;;;;;24.87;86.92;94416.25;5031855;28;20205;-62
2022/09/02 10:50:44;;;;;;;11.00;9.90;;;;;;;24.99;84.96;94450.09;5014268;28;20582;-64
2022/09/02 10:53:34;;;;;;;10.05;8.98;;;;;;;25.67;84.17;94471.28;5014881;28;20233;-66
2022/09/02 10:56:13;;;;;;;10.20;9.13;;;;;;;26.08;79.38;94554.53;5013135;28;20255;-64
2022/09/02 10:58:56;;;;;;;11.30;9.88;;;;;;;26.63;76.50;94602.69;5031408;28;20267;-64
2022/09/02 11:01:32;;;;;;;11.35;10.15;;;;;;;27.10;76.51;94566.84;5030374;28;20190;-63
2022/09/02 11:04:19;;;;;;;12.15;9.48;;;;;;;26.94;76.76;94557.16;5030629;28;20286;-63
2022/09/02 11:06:48;;;;;;;11.15;9.10;;;;;;;26.82;76.53;94545.94;5031719;28;20183;-61
2022/09/02 11:09:28;;;;;;;10.82;9.45;;;;;;;26.56;76.65;94531.56;5032224;28;20214;-63
2022/09/02 11:12:00;;;;;;;10.18;9.25;;;;;;;26.35;78.49;94492.28;5031892;28;20186;-64
2022/09/02 11:14:50;;;;;;;12.05;9.55;;;;;;;26.43;77.73;94499.75;5031464;28;20214;-64
2022/09/02 11:17:21;;;;;;;11.52;10.38;;;;;;;26.38;78.02;94491.84;5032741;28;20178;-67
2022/09/02 11:20:24;;;;;;;10.90;8.98;;;;;;;26.12;78.85;94472.28;5014449;28;20238;-65
2022/09/02 11:23:38;;;;;;;11.70;10.48;;;;;;;26.38;77.59;94489.25;5001438;28;20244;-64
2022/09/02 11:26:30;;;;;;;12.98;11.07;;;;;;;27.23;74.54;94550.88;4994663;28;20206;-63
2022/09/02 11:28:56;;;;;;;12.20;10.68;;;;;;;27.18;73.65;94553.41;5031515;28;20214;-62
2022/09/02 11:31:41;;;;;;;11.45;10.35;;;;;;;27.31;72.47;94571.38;5013858;28;20221;-66